createdAt,value
2019-02-14T00:00:59.469Z,84.20
2019-02-14T00:03:27.082Z,84.40
2019-02-14T00:05:54.399Z,84.60
2019-02-14T00:08:21.893Z,84.80
2019-02-14T00:10:49.262Z,85.00
2019-02-14T00:13:16.581Z,84.90
2019-02-14T00:15:43.873Z,84.70
2019-02-14T00:18:11.302Z,84.60
2019-02-14T00:20:38.742Z,84.40
2019-02-14T00:23:06.239Z,84.50
2019-02-14T00:25:36.578Z,83.90
2019-02-14T00:28:03.888Z,83.90
2019-02-14T00:30:31.418Z,84.20
2019-02-14T00:32:59.094Z,84.40
2019-02-14T00:35:26.510Z,84.60
2019-02-14T00:37:53.824Z,84.80
2019-02-14T00:40:21.119Z,85.10
2019-02-14T00:42:48.577Z,85.00
2019-02-14T00:45:16.117Z,84.70
2019-02-14T00:47:43.582Z,84.70
2019-02-14T00:50:10.777Z,85.00
2019-02-14T00:52:38.065Z,85.10
2019-02-14T00:55:05.386Z,85.00
2019-02-14T00:57:32.776Z,84.60
2019-02-14T01:00:00.300Z,85.00
2019-02-14T01:02:27.813Z,85.30
2019-02-14T01:04:55.320Z,85.40
2019-02-14T01:07:23.698Z,85.50
2019-02-14T01:09:51.235Z,85.80
2019-02-14T01:12:18.826Z,86.00
2019-02-14T01:14:46.244Z,86.90
2019-02-14T01:17:13.654Z,85.90
2019-02-14T01:19:41.039Z,85.80
2019-02-14T01:22:08.474Z,85.60
2019-02-14T01:24:35.652Z,85.80
2019-02-14T01:27:03.217Z,85.90
2019-02-14T01:29:30.485Z,85.80
2019-02-14T01:31:57.827Z,85.50
2019-02-14T01:34:25.216Z,85.70
2019-02-14T01:36:52.494Z,85.70
2019-02-14T01:39:20.035Z,85.80
2019-02-14T01:41:47.353Z,85.60
2019-02-14T01:44:14.769Z,86.00
2019-02-14T01:46:41.999Z,86.40
2019-02-14T01:49:09.353Z,86.60
2019-02-14T01:51:36.683Z,86.70
2019-02-14T01:54:04.090Z,86.60
2019-02-14T01:56:31.527Z,86.90
2019-02-14T01:58:58.850Z,87.20
2019-02-14T02:01:27.346Z,87.70
2019-02-14T02:03:54.819Z,87.90
2019-02-14T02:06:22.308Z,87.70
2019-02-14T02:08:49.709Z,87.20
2019-02-14T02:11:17.063Z,86.80
2019-02-14T02:13:44.422Z,86.90
2019-02-14T02:16:11.692Z,86.70
2019-02-14T02:18:39.322Z,86.50
2019-02-14T02:21:06.744Z,86.40
2019-02-14T02:23:34.303Z,86.10
2019-02-14T02:26:01.686Z,86.40
2019-02-14T02:28:29.574Z,86.40
2019-02-14T02:30:57.058Z,87.30
2019-02-14T02:33:24.525Z,86.40
2019-02-14T02:36:00.231Z,86.50
2019-02-14T02:38:20.993Z,86.50
2019-02-14T02:40:48.455Z,86.70
2019-02-14T02:43:15.843Z,86.80
2019-02-14T02:45:43.024Z,86.70
2019-02-14T02:48:10.351Z,87.20
2019-02-14T02:50:37.814Z,86.90
2019-02-14T02:53:05.243Z,87.00
2019-02-14T02:55:32.552Z,87.20
2019-02-14T02:57:59.959Z,87.20
2019-02-14T03:00:27.456Z,87.10
2019-02-14T03:02:54.849Z,87.50
2019-02-14T03:05:22.123Z,87.40
2019-02-14T03:07:49.489Z,87.30
2019-02-14T03:10:16.906Z,87.40
2019-02-14T03:12:44.315Z,87.80
2019-02-14T03:15:12.096Z,87.90
2019-02-14T03:17:39.377Z,87.90
2019-02-14T03:20:08.290Z,87.80
2019-02-14T03:22:35.681Z,87.90
2019-02-14T03:25:03.822Z,89.00
2019-02-14T03:27:31.240Z,88.70
2019-02-14T03:29:59.697Z,88.60
2019-02-14T03:32:27.051Z,88.40
2019-02-14T03:34:54.491Z,88.00
2019-02-14T03:37:22.185Z,87.60
2019-02-14T03:39:49.618Z,87.00
2019-02-14T03:42:16.961Z,87.10
2019-02-14T03:44:44.303Z,87.40
2019-02-14T03:47:11.715Z,87.70
2019-02-14T03:49:39.001Z,87.80
2019-02-14T03:52:10.531Z,87.90
2019-02-14T03:54:38.226Z,87.50
2019-02-14T03:57:06.769Z,87.40
2019-02-14T03:59:34.261Z,87.90
2019-02-14T04:02:01.678Z,87.80
2019-02-14T04:04:29.318Z,88.00
2019-02-14T04:06:56.865Z,88.00
2019-02-14T04:09:24.267Z,88.30
2019-02-14T04:11:51.732Z,88.40
2019-02-14T04:14:19.101Z,88.60
2019-02-14T04:16:46.560Z,88.50
2019-02-14T04:19:13.901Z,88.50
2019-02-14T04:21:41.279Z,88.30
2019-02-14T04:24:08.714Z,88.40
2019-02-14T04:26:35.960Z,88.70
2019-02-14T04:29:03.336Z,88.50
2019-02-14T04:31:30.701Z,88.50
2019-02-14T04:33:57.902Z,88.60
2019-02-14T04:36:25.322Z,88.40
2019-02-14T04:38:52.677Z,88.10
2019-02-14T04:41:20.080Z,88.10
2019-02-14T04:43:47.605Z,88.00
2019-02-14T04:46:15.024Z,87.80
2019-02-14T04:48:42.506Z,87.90
2019-02-14T04:51:09.771Z,88.10
2019-02-14T04:53:37.323Z,88.20
2019-02-14T04:56:04.757Z,88.20
2019-02-14T04:58:32.128Z,88.20
2019-02-14T05:00:59.530Z,88.40
2019-02-14T05:03:26.994Z,88.60
2019-02-14T05:05:54.363Z,89.30
2019-02-14T05:08:22.960Z,90.20
2019-02-14T05:10:50.328Z,89.80
2019-02-14T05:13:20.384Z,89.70
2019-02-14T05:15:48.824Z,89.70
2019-02-14T05:18:16.184Z,89.30
2019-02-14T05:20:43.404Z,89.30
2019-02-14T05:23:10.855Z,89.30
2019-02-14T05:25:38.209Z,89.50
2019-02-14T05:28:05.558Z,89.50
2019-02-14T05:30:33.014Z,89.80
2019-02-14T05:33:00.478Z,89.90
2019-02-14T05:35:27.841Z,89.50
2019-02-14T05:37:55.318Z,89.60
2019-02-14T05:40:22.700Z,89.70
2019-02-14T05:42:50.390Z,89.90
2019-02-14T05:45:17.770Z,89.90
2019-02-14T05:47:45.160Z,89.90
2019-02-14T05:50:12.500Z,90.40
2019-02-14T05:52:40.004Z,90.00
2019-02-14T05:55:08.468Z,90.00
2019-02-14T05:57:35.848Z,90.00
2019-02-14T06:00:03.874Z,90.10
2019-02-14T06:02:32.429Z,90.10
2019-02-14T06:05:01.729Z,90.10
2019-02-14T06:07:29.184Z,90.00
2019-02-14T06:09:56.660Z,90.10
2019-02-14T06:12:24.057Z,90.10
2019-02-14T06:14:51.516Z,90.00
2019-02-14T06:17:18.811Z,90.00
2019-02-14T06:19:46.184Z,90.10
2019-02-14T06:22:13.457Z,90.00
2019-02-14T06:24:40.744Z,90.20
2019-02-14T06:27:08.138Z,90.10
2019-02-14T06:29:35.638Z,90.00
2019-02-14T06:32:03.039Z,90.00
2019-02-14T06:34:30.422Z,90.10
2019-02-14T06:36:57.923Z,90.10
2019-02-14T06:39:25.332Z,89.90
2019-02-14T06:41:52.950Z,89.90
2019-02-14T06:44:20.453Z,90.00
2019-02-14T06:46:48.968Z,89.90
2019-02-14T06:49:16.370Z,89.90
2019-02-14T06:51:43.753Z,89.90
2019-02-14T06:54:11.194Z,89.50
2019-02-14T06:56:38.615Z,89.60
2019-02-14T06:59:05.882Z,89.80
2019-02-14T07:01:33.227Z,89.90
2019-02-14T07:04:00.708Z,90.00
2019-02-14T07:06:28.085Z,90.00
2019-02-14T07:08:55.529Z,90.00
2019-02-14T07:11:22.743Z,89.80
2019-02-14T07:13:50.102Z,89.80
2019-02-14T07:16:17.575Z,90.10
2019-02-14T07:18:45.059Z,90.10
2019-02-14T07:21:12.470Z,90.10
2019-02-14T07:23:39.845Z,90.00
2019-02-14T07:26:07.218Z,90.20
2019-02-14T07:28:34.588Z,90.10
2019-02-14T07:31:01.973Z,90.00
2019-02-14T07:33:29.399Z,89.80
2019-02-14T07:35:56.780Z,89.70
2019-02-14T07:38:24.072Z,89.60
2019-02-14T07:40:52.431Z,89.70
2019-02-14T07:43:19.888Z,89.40
2019-02-14T07:45:47.163Z,89.10
2019-02-14T07:48:14.538Z,88.80
2019-02-14T07:50:41.886Z,88.70
2019-02-14T07:53:09.198Z,88.40
2019-02-14T07:55:36.572Z,88.80
2019-02-14T07:58:03.980Z,88.80
2019-02-14T08:00:31.442Z,89.50
2019-02-14T08:02:58.826Z,88.70
2019-02-14T08:05:26.246Z,88.40
2019-02-14T08:07:53.501Z,88.70
2019-02-14T08:10:20.902Z,89.00
2019-02-14T08:12:48.078Z,89.00
2019-02-14T08:15:15.491Z,88.50
2019-02-14T08:17:42.849Z,88.60
2019-02-14T08:20:10.552Z,88.80
2019-02-14T08:22:37.821Z,88.80
2019-02-14T08:25:06.626Z,88.70
2019-02-14T08:27:33.936Z,88.40
2019-02-14T08:30:01.285Z,88.40
2019-02-14T08:32:28.702Z,88.50
2019-02-14T08:34:56.015Z,88.20
2019-02-14T08:37:23.411Z,87.90
2019-02-14T08:39:50.786Z,87.60
2019-02-14T08:42:19.129Z,87.30
2019-02-14T08:44:46.609Z,87.10
2019-02-14T08:47:13.987Z,86.90
2019-02-14T08:49:41.409Z,86.80
2019-02-14T08:52:08.825Z,86.50
2019-02-14T08:54:36.250Z,85.70
2019-02-14T08:57:03.605Z,85.10
2019-02-14T08:59:31.882Z,84.90
2019-02-14T09:01:59.246Z,84.40
2019-02-14T09:04:26.726Z,84.30
2019-02-14T09:06:54.261Z,83.80
2019-02-14T09:09:21.596Z,83.20
2019-02-14T09:11:49.052Z,83.60
2019-02-14T09:14:16.434Z,82.30
2019-02-14T09:16:43.911Z,81.80
2019-02-14T09:19:11.109Z,81.10
2019-02-14T09:21:38.522Z,80.70
2019-02-14T09:24:05.763Z,79.90
2019-02-14T09:26:33.118Z,79.50
2019-02-14T09:29:00.406Z,79.10
2019-02-14T09:31:27.678Z,78.90
2019-02-14T09:33:55.051Z,78.40
2019-02-14T09:36:22.443Z,78.30
2019-02-14T09:38:49.870Z,77.50
2019-02-14T09:41:17.251Z,76.70
2019-02-14T09:43:44.627Z,75.70
2019-02-14T09:46:12.053Z,75.50
2019-02-14T09:48:39.477Z,75.40
2019-02-14T09:51:06.977Z,75.10
2019-02-14T09:53:34.445Z,74.80
2019-02-14T09:56:01.799Z,75.20
2019-02-14T09:58:29.435Z,75.00
2019-02-14T10:00:56.863Z,73.90
2019-02-14T10:03:24.236Z,73.50
2019-02-14T10:05:51.605Z,72.10
2019-02-14T10:08:19.055Z,71.30
2019-02-14T10:10:46.783Z,71.00
2019-02-14T10:13:14.148Z,70.90
2019-02-14T10:15:41.438Z,71.70
2019-02-14T10:18:08.788Z,71.70
2019-02-14T10:20:36.225Z,71.90
2019-02-14T10:23:03.639Z,72.10
2019-02-14T10:25:31.007Z,71.40
2019-02-14T10:27:58.540Z,71.00
2019-02-14T10:30:25.889Z,70.30
2019-02-14T10:32:53.043Z,70.00
2019-02-14T10:35:20.399Z,70.40
2019-02-14T10:37:47.745Z,70.50
2019-02-14T10:40:15.050Z,70.60
2019-02-14T10:42:42.504Z,71.00
2019-02-14T10:45:11.852Z,71.00
2019-02-14T10:47:39.165Z,70.70
2019-02-14T10:50:07.700Z,71.00
2019-02-14T10:52:35.078Z,69.70
2019-02-14T10:55:02.809Z,68.50
2019-02-14T10:57:30.154Z,68.00
2019-02-14T10:59:57.798Z,67.80
2019-02-14T11:02:25.174Z,67.50
2019-02-14T11:04:52.600Z,66.70
2019-02-14T11:07:20.094Z,64.40
2019-02-14T11:09:47.331Z,63.60
2019-02-14T11:12:14.760Z,62.90
2019-02-14T11:14:42.022Z,62.80
2019-02-14T11:17:09.418Z,63.20
2019-02-14T11:19:36.795Z,63.30
2019-02-14T11:22:04.055Z,63.30
2019-02-14T11:24:31.314Z,62.30
2019-02-14T11:26:58.649Z,62.00
2019-02-14T11:29:26.090Z,62.30
2019-02-14T11:31:53.563Z,61.80
2019-02-14T11:34:20.936Z,61.40
2019-02-14T11:36:48.359Z,61.80
2019-02-14T11:39:15.766Z,62.50
2019-02-14T11:41:43.098Z,61.60
2019-02-14T11:44:10.453Z,57.90
2019-02-14T11:46:37.650Z,53.00
2019-02-14T11:49:04.980Z,50.40
2019-02-14T11:51:32.355Z,47.00
2019-02-14T11:53:59.790Z,41.70
2019-02-14T11:56:27.158Z,38.60
2019-02-14T11:58:54.617Z,37.60
2019-02-14T12:01:21.941Z,36.80
2019-02-14T12:03:49.370Z,36.60
2019-02-14T12:06:17.738Z,36.80
2019-02-14T12:08:57.778Z,37.30
2019-02-14T12:11:14.589Z,38.00
2019-02-14T12:13:41.974Z,39.20
2019-02-14T12:16:09.608Z,43.30
2019-02-14T12:18:36.754Z,43.80
2019-02-14T12:21:03.889Z,41.60
2019-02-14T12:23:31.350Z,41.30
2019-02-14T12:25:58.659Z,43.80
2019-02-14T12:28:26.180Z,45.60
2019-02-14T12:30:53.598Z,47.60
2019-02-14T12:33:20.882Z,49.10
2019-02-14T12:35:48.274Z,50.60
2019-02-14T12:38:15.646Z,51.60
2019-02-14T12:40:43.014Z,52.20
2019-02-14T12:43:10.291Z,52.60
2019-02-14T12:45:37.790Z,50.10
2019-02-14T12:48:05.236Z,47.70
2019-02-14T12:50:32.600Z,48.40
2019-02-14T12:52:59.936Z,48.40
2019-02-14T12:55:27.228Z,49.70
2019-02-14T12:57:54.614Z,51.30
2019-02-14T13:00:22.063Z,52.50
2019-02-14T13:02:49.392Z,53.50
2019-02-14T13:05:16.807Z,54.50
2019-02-14T13:07:44.140Z,55.40
2019-02-14T13:10:11.622Z,55.30
2019-02-14T13:12:39.125Z,55.40
2019-02-14T13:15:08.963Z,54.90
2019-02-14T13:17:36.476Z,54.70
2019-02-14T13:20:04.013Z,54.40
2019-02-14T13:22:31.380Z,53.50
2019-02-14T13:24:58.658Z,51.50
2019-02-14T13:27:26.092Z,49.80
2019-02-14T13:29:53.574Z,48.70
2019-02-14T13:32:20.922Z,47.30
2019-02-14T13:34:48.284Z,47.40
2019-02-14T13:37:15.556Z,48.30
2019-02-14T13:39:43.058Z,50.00
2019-02-14T13:42:10.449Z,50.80
2019-02-14T13:44:37.838Z,51.80
2019-02-14T13:47:05.243Z,53.30
2019-02-14T13:49:32.946Z,54.10
2019-02-14T13:52:00.600Z,55.20
2019-02-14T13:54:27.915Z,55.80
2019-02-14T13:56:55.054Z,55.80
2019-02-14T13:59:22.444Z,56.10
2019-02-14T14:01:49.858Z,56.00
2019-02-14T14:04:17.314Z,56.30
2019-02-14T14:06:44.796Z,56.60
2019-02-14T14:09:12.281Z,56.40
2019-02-14T14:11:39.639Z,56.30
2019-02-14T14:14:07.013Z,56.20
2019-02-14T14:16:34.398Z,56.10
2019-02-14T14:19:06.320Z,55.90
2019-02-14T14:21:30.820Z,56.00
2019-02-14T14:23:58.253Z,56.10
2019-02-14T14:26:25.635Z,56.80
2019-02-14T14:28:52.981Z,57.00
2019-02-14T14:31:20.385Z,57.40
2019-02-14T14:33:47.718Z,57.50
2019-02-14T14:36:15.024Z,57.40
2019-02-14T14:38:42.516Z,58.10
2019-02-14T14:41:10.054Z,58.50
2019-02-14T14:43:49.005Z,58.80
2019-02-14T14:46:23.252Z,58.50
2019-02-14T14:48:50.571Z,58.40
2019-02-14T14:51:17.976Z,58.20
2019-02-14T14:53:45.406Z,57.80
2019-02-14T14:56:12.835Z,57.60
2019-02-14T14:58:40.310Z,58.50
2019-02-14T15:01:07.574Z,58.00
2019-02-14T15:03:35.029Z,57.90
2019-02-14T15:06:02.435Z,58.10
2019-02-14T15:08:29.823Z,58.20
2019-02-14T15:10:58.014Z,58.90
2019-02-14T15:13:25.338Z,59.10
2019-02-14T15:15:52.738Z,59.30
2019-02-14T15:18:20.193Z,59.20
2019-02-14T15:20:47.682Z,59.20
2019-02-14T15:23:14.992Z,59.50
2019-02-14T15:25:42.394Z,59.50
2019-02-14T15:28:09.771Z,59.60
2019-02-14T15:30:37.198Z,59.80
2019-02-14T15:33:04.540Z,60.00
2019-02-14T15:35:31.963Z,60.30
2019-02-14T15:37:59.297Z,60.60
2019-02-14T15:40:26.674Z,60.90
2019-02-14T15:42:54.144Z,61.60
2019-02-14T15:45:21.495Z,61.80
2019-02-14T15:47:48.859Z,62.00
2019-02-14T15:50:16.282Z,62.10
2019-02-14T15:52:43.680Z,62.20
2019-02-14T15:55:11.003Z,62.30
2019-02-14T15:57:40.449Z,62.50
2019-02-14T16:00:10.510Z,62.60
2019-02-14T16:02:37.355Z,63.60
2019-02-14T16:05:04.943Z,62.90
2019-02-14T16:07:32.159Z,63.00
2019-02-14T16:10:03.320Z,63.20
2019-02-14T16:12:30.276Z,63.80
2019-02-14T16:14:57.430Z,64.00
2019-02-14T16:17:24.843Z,64.20
2019-02-14T16:19:52.108Z,64.30
2019-02-14T16:22:19.588Z,64.50
2019-02-14T16:24:47.091Z,64.70
2019-02-14T16:27:14.498Z,65.00
2019-02-14T16:29:41.861Z,65.50
2019-02-14T16:32:10.410Z,66.10
2019-02-14T16:34:37.819Z,67.20
2019-02-14T16:37:05.413Z,66.40
2019-02-14T16:39:32.821Z,66.40
2019-02-14T16:42:00.114Z,65.80
2019-02-14T16:44:27.473Z,65.80
2019-02-14T16:46:54.720Z,66.10
2019-02-14T16:49:22.120Z,66.10
2019-02-14T16:51:49.599Z,66.10
2019-02-14T16:54:16.835Z,66.20
2019-02-14T16:56:44.163Z,66.20
2019-02-14T16:59:11.503Z,66.10
2019-02-14T17:01:39.281Z,65.90
2019-02-14T17:04:07.179Z,65.40
2019-02-14T17:06:35.581Z,65.70
2019-02-14T17:09:05.033Z,66.40
2019-02-14T17:11:34.472Z,67.10
2019-02-14T17:14:01.990Z,67.60
2019-02-14T17:16:38.996Z,68.10
2019-02-14T17:19:09.875Z,68.30
2019-02-14T17:21:37.513Z,68.60
2019-02-14T17:24:05.226Z,68.90
2019-02-14T17:26:32.620Z,69.60
2019-02-14T17:29:00.074Z,70.10
2019-02-14T17:31:27.330Z,70.90
2019-02-14T17:33:55.641Z,71.00
2019-02-14T17:36:22.989Z,71.40
2019-02-14T17:38:50.356Z,71.60
2019-02-14T17:41:17.844Z,72.60
2019-02-14T17:43:45.404Z,71.90
2019-02-14T17:46:12.802Z,72.00
2019-02-14T17:48:40.308Z,72.20
2019-02-14T17:51:07.790Z,72.20
2019-02-14T17:53:35.193Z,72.40
2019-02-14T17:56:02.586Z,73.20
2019-02-14T17:58:30.140Z,73.40
2019-02-14T18:00:57.514Z,73.20
2019-02-14T18:03:25.157Z,72.70
2019-02-14T18:05:52.571Z,71.80
2019-02-14T18:08:20.071Z,71.20
2019-02-14T18:10:54.734Z,70.80
2019-02-14T18:13:17.008Z,70.90
2019-02-14T18:15:44.339Z,70.60
2019-02-14T18:18:12.902Z,71.30
2019-02-14T18:20:40.315Z,72.10
2019-02-14T18:23:07.746Z,71.80
2019-02-14T18:25:35.218Z,71.70
2019-02-14T18:28:02.644Z,71.70
2019-02-14T18:30:30.137Z,71.70
2019-02-14T18:32:57.658Z,72.10
2019-02-14T18:35:25.101Z,72.80
2019-02-14T18:37:52.381Z,74.00
2019-02-14T18:40:19.826Z,74.50
2019-02-14T18:42:47.342Z,74.90
2019-02-14T18:45:14.707Z,75.10
2019-02-14T18:47:42.278Z,75.40
2019-02-14T18:50:10.082Z,75.80
2019-02-14T18:52:37.663Z,76.00
2019-02-14T18:55:05.459Z,76.30
2019-02-14T18:57:32.950Z,76.40
2019-02-14T19:00:00.443Z,76.50
2019-02-14T19:02:27.950Z,76.20
2019-02-14T19:04:55.360Z,76.50
2019-02-14T19:07:22.777Z,76.40
2019-02-14T19:09:50.237Z,76.50
2019-02-14T19:12:17.691Z,76.50
2019-02-14T19:14:45.027Z,76.90
2019-02-14T19:17:12.395Z,77.40
2019-02-14T19:19:41.010Z,77.60
2019-02-14T19:22:08.784Z,77.80
2019-02-14T19:24:36.254Z,78.10
2019-02-14T19:27:03.655Z,78.20
2019-02-14T19:29:31.057Z,78.50
2019-02-14T19:31:58.519Z,78.60
2019-02-14T19:34:25.870Z,78.60
2019-02-14T19:36:53.310Z,78.60
2019-02-14T19:39:20.783Z,78.70
2019-02-14T19:41:48.185Z,79.00
2019-02-14T19:44:15.655Z,78.80
2019-02-14T19:46:43.017Z,78.50
2019-02-14T19:49:10.442Z,79.00
2019-02-14T19:51:38.410Z,79.00
2019-02-14T19:54:05.727Z,79.20
2019-02-14T19:56:33.155Z,79.40
2019-02-14T19:59:01.238Z,79.80
2019-02-14T20:01:28.612Z,79.90
2019-02-14T20:03:56.070Z,80.10
2019-02-14T20:06:23.533Z,80.30
2019-02-14T20:08:51.012Z,80.50
2019-02-14T20:11:18.499Z,80.40
2019-02-14T20:13:49.463Z,80.40
2019-02-14T20:16:15.344Z,80.70
2019-02-14T20:18:42.818Z,81.00
2019-02-14T20:21:10.316Z,80.90
2019-02-14T20:23:37.639Z,81.00
2019-02-14T20:26:05.082Z,81.20
2019-02-14T20:28:32.578Z,81.50
2019-02-14T20:30:59.995Z,81.70
2019-02-14T20:33:27.566Z,81.60
2019-02-14T20:35:55.051Z,81.00
2019-02-14T20:38:22.458Z,80.00
2019-02-14T20:40:50.128Z,79.70
2019-02-14T20:43:17.509Z,80.10
2019-02-14T20:45:44.950Z,78.30
2019-02-14T20:48:12.467Z,77.70
2019-02-14T20:50:40.019Z,77.30
2019-02-14T20:53:07.361Z,76.70
2019-02-14T20:55:34.928Z,76.00
2019-02-14T20:58:02.334Z,75.70
2019-02-14T21:00:35.652Z,75.60
2019-02-14T21:03:03.187Z,75.70
2019-02-14T21:05:30.676Z,75.10
2019-02-14T21:07:58.065Z,75.20
2019-02-14T21:10:25.635Z,75.20
2019-02-14T21:12:53.000Z,75.00
2019-02-14T21:15:20.587Z,75.10
2019-02-14T21:17:48.061Z,75.40
2019-02-14T21:20:15.518Z,75.40
2019-02-14T21:22:43.227Z,76.30
2019-02-14T21:25:10.625Z,74.80
2019-02-14T21:27:38.164Z,75.70
2019-02-14T21:30:06.206Z,75.80
2019-02-14T21:32:33.903Z,75.90
2019-02-14T21:35:01.318Z,76.20
2019-02-14T21:37:29.044Z,76.40
2019-02-14T21:39:56.523Z,76.70
2019-02-14T21:42:29.077Z,77.00
2019-02-14T21:44:53.585Z,77.10
2019-02-14T21:47:21.055Z,77.30
2019-02-14T21:49:48.621Z,77.10
2019-02-14T21:52:16.148Z,77.00
2019-02-14T21:54:43.671Z,76.80
2019-02-14T21:57:11.101Z,76.40
2019-02-14T21:59:38.610Z,76.10
2019-02-14T22:02:06.655Z,75.70
2019-02-14T22:04:34.683Z,75.50
2019-02-14T22:07:02.150Z,75.50
2019-02-14T22:09:29.595Z,75.40
2019-02-14T22:11:57.148Z,75.20
2019-02-14T22:14:24.767Z,75.00
2019-02-14T22:16:51.953Z,75.00
2019-02-14T22:19:19.766Z,75.20
2019-02-14T22:21:54.381Z,75.00
2019-02-14T22:24:21.967Z,75.00
2019-02-14T22:26:49.230Z,75.00
2019-02-14T22:29:16.567Z,75.00
2019-02-14T22:31:44.041Z,75.40
2019-02-14T22:34:11.446Z,75.50
2019-02-14T22:36:38.848Z,75.20
2019-02-14T22:39:06.130Z,75.20
2019-02-14T22:41:35.492Z,75.50
2019-02-14T22:44:02.931Z,75.70
2019-02-14T22:46:30.298Z,75.60
2019-02-14T22:48:57.815Z,75.70
2019-02-14T22:51:25.122Z,76.10
2019-02-14T22:53:52.538Z,76.40
2019-02-14T22:56:19.741Z,76.90
2019-02-14T22:58:47.099Z,76.90
2019-02-14T23:01:14.722Z,77.40
2019-02-14T23:03:42.232Z,77.60
2019-02-14T23:06:09.520Z,77.70
2019-02-14T23:08:37.061Z,78.00
2019-02-14T23:11:04.516Z,78.10
2019-02-14T23:13:31.888Z,78.10
2019-02-14T23:15:59.095Z,78.40
2019-02-14T23:18:26.469Z,78.50
2019-02-14T23:20:53.827Z,78.40
2019-02-14T23:23:21.289Z,78.50
2019-02-14T23:25:48.674Z,78.20
2019-02-14T23:28:16.046Z,78.00
2019-02-14T23:30:43.474Z,77.90
2019-02-14T23:33:10.897Z,77.90
2019-02-14T23:35:38.340Z,78.10
2019-02-14T23:38:05.752Z,78.20
2019-02-14T23:40:33.179Z,78.00
2019-02-14T23:43:04.659Z,78.10
2019-02-14T23:45:29.758Z,78.30
2019-02-14T23:47:57.190Z,78.40
2019-02-14T23:50:24.549Z,78.40
2019-02-14T23:52:51.931Z,78.50
2019-02-14T23:55:19.336Z,78.80
2019-02-14T23:57:46.781Z,79.00
